Time;durP1;ratioP1;P1;durP2;ratioP2;P2;SDS_P1;SDS_P2;PMS_P1;PMS_P2;Temp;Humidity;BMP_temperature;BMP_pressure;BME280_temperature;BME280_humidity;BME280_pressure;Samples;Min_cycle;Max_cycle;Signal;HPM_P1;HPM_P2
2022/04/20 00:01:58;;;;;;;3.50;2.85;;;6.60;70.00;;;;;;5024453;28;20053;-89
2022/04/20 00:04:48;;;;;;;9.05;2.95;;;6.50;70.90;;;;;;5022775;28;20127;-87
2022/04/20 00:07:35;;;;;;;6.47;3.30;;;6.50;71.40;;;;;;5048691;28;20049;-88
2022/04/20 00:10:25;;;;;;;5.35;3.28;;;6.50;72.20;;;;;;5024207;28;20045;-86
2022/04/20 00:13:13;;;;;;;5.80;3.28;;;6.40;72.80;;;;;;5033390;28;20063;-88
2022/04/20 00:16:07;;;;;;;5.70;3.38;;;6.30;73.00;;;;;;5018603;28;20055;-85
2022/04/20 00:18:57;;;;;;;4.25;3.40;;;6.30;74.50;;;;;;5018164;28;20046;-86
2022/04/20 00:21:46;;;;;;;7.50;3.53;;;6.10;74.90;;;;;;5032105;28;20057;-87
2022/04/20 00:24:33;;;;;;;8.95;3.53;;;6.10;76.70;;;;;;5032735;28;20057;-89
2022/04/20 00:27:21;;;;;;;3.92;2.97;;;6.10;77.60;;;;;;5021171;28;20540;-86
2022/04/20 00:30:11;;;;;;;5.45;3.58;;;6.00;78.70;;;;;;5018544;28;20116;-84
2022/04/20 00:32:59;;;;;;;7.38;3.53;;;5.90;79.90;;;;;;5048195;28;20047;-84
2022/04/20 00:35:48;;;;;;;9.15;3.97;;;5.90;80.90;;;;;;5040505;28;20049;-88
2022/04/20 00:38:35;;;;;;;4.43;3.47;;;5.90;82.10;;;;;;5053259;28;20139;-86
2022/04/20 00:41:23;;;;;;;9.70;4.50;;;5.80;83.10;;;;;;5024235;28;20041;-85
2022/04/20 00:44:11;;;;;;;5.50;3.65;;;5.70;85.60;;;;;;5035831;28;20045;-84
2022/04/20 00:47:30;;;;;;;8.65;3.97;;;5.60;87.80;;;;;;5036970;28;20045;-86
2022/04/20 00:50:31;;;;;;;8.02;4.20;;;5.60;90.60;;;;;;5030853;28;20378;-87
2022/04/20 00:53:20;;;;;;;12.60;4.07;;;5.50;92.30;;;;;;5013063;28;20041;-86
2022/04/20 00:56:11;;;;;;;5.22;4.07;;;5.50;93.60;;;;;;5032562;28;20151;-88
2022/04/20 00:59:01;;;;;;;7.28;4.63;;;5.40;95.90;;;;;;5036978;28;20324;-87
2022/04/20 01:01:50;;;;;;;9.30;4.80;;;5.40;97.50;;;;;;5024557;28;20420;-89
2022/04/20 01:04:38;;;;;;;7.50;4.80;;;5.40;99.90;;;;;;5023963;28;20077;-87
2022/04/20 01:07:33;;;;;;;8.65;5.22;;;5.30;99.90;;;;;;5039690;28;20103;-85
2022/04/20 01:10:20;;;;;;;7.05;4.88;;;5.30;99.90;;;;;;5012202;28;20321;-87
2022/04/20 01:13:10;;;;;;;6.18;5.10;;;5.20;99.90;;;;;;5008102;28;20046;-87
2022/04/20 01:15:57;;;;;;;9.32;5.18;;;5.10;99.90;;;;;;5016115;28;20049;-85
2022/04/20 01:18:45;;;;;;;9.55;5.10;;;5.00;99.90;;;;;;5025261;28;20063;-89
2022/04/20 01:21:32;;;;;;;7.70;4.50;;;4.90;99.90;;;;;;5029131;28;20065;-88
2022/04/20 01:24:19;;;;;;;9.60;5.15;;;4.70;99.90;;;;;;5051364;28;20060;-87
2022/04/20 01:27:11;;;;;;;10.20;5.60;;;4.60;99.90;;;;;;5006471;28;20104;-87
2022/04/20 01:30:00;;;;;;;9.50;4.83;;;4.60;99.90;;;;;;5028307;28;20049;-86
2022/04/20 01:32:47;;;;;;;8.45;5.13;;;4.60;99.90;;;;;;5031836;28;20335;-87
2022/04/20 01:35:35;;;;;;;6.38;4.95;;;4.60;99.90;;;;;;5034926;28;20439;-87
2022/04/20 01:38:22;;;;;;;8.80;5.65;;;4.60;99.90;;;;;;5034414;28;20454;-86
2022/04/20 01:41:11;;;;;;;8.20;5.55;;;4.60;99.90;;;;;;5012673;28;20073;-88
2022/04/20 01:43:59;;;;;;;10.40;5.50;;;4.50;99.90;;;;;;5030709;28;20050;-87
2022/04/20 01:46:46;;;;;;;7.22;6.10;;;4.60;99.90;;;;;;5035768;28;20103;-88
2022/04/20 01:49:34;;;;;;;7.32;5.63;;;4.60;99.90;;;;;;5031338;28;20108;-89
2022/04/20 01:52:21;;;;;;;8.73;5.32;;;4.50;99.90;;;;;;5033297;28;20045;-89
2022/04/20 01:55:11;;;;;;;7.53;5.10;;;4.30;99.90;;;;;;5033573;28;20052;-87
2022/04/20 01:58:00;;;;;;;10.15;5.00;;;4.20;99.90;;;;;;5017485;28;20432;-88
2022/04/20 02:00:48;;;;;;;8.50;5.63;;;4.10;99.90;;;;;;5033112;28;20056;-85
2022/04/20 02:03:35;;;;;;;8.35;5.47;;;4.00;99.90;;;;;;5026722;28;20104;-88
2022/04/20 02:06:22;;;;;;;12.63;6.38;;;4.00;99.90;;;;;;5024810;28;20127;-88
2022/04/20 02:09:10;;;;;;;10.38;6.50;;;4.00;99.90;;;;;;5017987;28;20459;-85
2022/04/20 02:11:57;;;;;;;9.13;5.70;;;4.10;99.90;;;;;;5020437;28;20041;-87
2022/04/20 02:14:47;;;;;;;10.00;6.20;;;4.20;99.90;;;;;;5030960;28;20041;-87
2022/04/20 02:17:39;;;;;;;8.48;5.57;;;4.20;99.90;;;;;;5033512;28;20092;-85
2022/04/20 02:20:27;;;;;;;10.40;5.25;;;4.20;99.90;;;;;;5048607;28;20410;-87
2022/04/20 02:23:14;;;;;;;8.93;5.80;;;4.10;99.90;;;;;;5033834;28;20053;-89
2022/04/20 02:26:04;;;;;;;10.05;6.07;;;4.00;99.90;;;;;;5033090;28;20112;-88
2022/04/20 02:28:51;;;;;;;8.70;5.97;;;3.90;99.90;;;;;;5028257;28;20455;-87
2022/04/20 02:31:38;;;;;;;7.95;5.82;;;3.80;99.90;;;;;;5029342;28;20427;-89
2022/04/20 02:34:26;;;;;;;8.40;6.10;;;3.80;99.90;;;;;;5014474;28;20112;-86
2022/04/20 02:37:16;;;;;;;11.00;6.75;;;3.80;99.90;;;;;;5049740;28;20357;-86
2022/04/20 02:40:04;;;;;;;7.10;5.80;;;3.90;99.90;;;;;;5035605;28;20060;-88
2022/04/20 02:42:51;;;;;;;9.88;6.00;;;4.00;99.90;;;;;;5022227;28;20037;-86
2022/04/20 02:45:41;;;;;;;6.88;5.60;;;4.10;99.90;;;;;;5023296;28;20105;-89
2022/04/20 02:48:28;;;;;;;10.70;6.63;;;4.10;99.90;;;;;;5020349;28;20107;-88
2022/04/20 02:51:15;;;;;;;9.60;6.40;;;4.10;99.90;;;;;;5034884;28;20053;-89
2022/04/20 02:54:05;;;;;;;9.10;6.15;;;4.00;99.90;;;;;;5032735;28;20072;-85
2022/04/20 02:56:54;;;;;;;8.43;6.57;;;4.00;99.90;;;;;;5037048;28;20095;-88
2022/04/20 02:59:41;;;;;;;10.60;6.47;;;3.90;99.90;;;;;;5036099;28;20328;-88
2022/04/20 03:02:32;;;;;;;10.30;6.93;;;3.80;99.90;;;;;;5045219;28;20072;-89
2022/04/20 03:05:19;;;;;;;8.95;6.38;;;3.70;99.90;;;;;;5026259;28;20412;-88
2022/04/20 03:08:06;;;;;;;9.95;6.50;;;3.70;99.90;;;;;;5040982;28;20069;-90
2022/04/20 03:10:54;;;;;;;11.20;7.05;;;3.60;99.90;;;;;;5036951;28;20128;-90
2022/04/20 03:13:41;;;;;;;9.05;6.50;;;3.60;99.90;;;;;;5036741;28;20128;-87
2022/04/20 03:16:35;;;;;;;10.48;7.25;;;3.60;99.90;;;;;;5064948;28;20044;-89
2022/04/20 03:19:23;;;;;;;8.13;6.57;;;3.60;99.90;;;;;;5049759;28;20050;-86
2022/04/20 03:22:10;;;;;;;9.98;7.05;;;3.60;99.90;;;;;;5045751;28;20052;-87
2022/04/20 03:24:57;;;;;;;9.07;6.95;;;3.50;99.90;;;;;;5058021;28;20045;-85
2022/04/20 03:27:47;;;;;;;11.35;7.65;;;3.50;99.90;;;;;;5047206;28;20049;-84
2022/04/20 03:30:38;;;;;;;9.48;7.53;;;3.50;99.90;;;;;;5057693;28;20041;-84
2022/04/20 03:33:25;;;;;;;9.95;7.43;;;3.40;99.90;;;;;;5058537;28;20029;-84
2022/04/20 03:36:16;;;;;;;9.68;7.28;;;3.40;99.90;;;;;;5077368;28;20032;-83
2022/04/20 03:39:04;;;;;;;10.98;7.07;;;3.30;99.90;;;;;;5075426;28;20037;-85
2022/04/20 03:41:51;;;;;;;10.77;7.65;;;3.20;99.90;;;;;;5054806;28;20041;-86
2022/04/20 03:44:39;;;;;;;8.70;6.97;;;3.10;99.90;;;;;;5062800;28;20147;-87
2022/04/20 03:47:29;;;;;;;11.40;7.32;;;3.10;99.90;;;;;;5049155;28;20148;-88
2022/04/20 03:50:17;;;;;;;10.70;7.55;;;3.00;99.90;;;;;;5045051;28;20103;-87
2022/04/20 03:53:05;;;;;;;8.77;6.85;;;3.00;99.90;;;;;;5031128;28;20069;-89
2022/04/20 03:55:52;;;;;;;11.95;7.97;;;2.90;99.90;;;;;;5036342;28;20383;-89
2022/04/20 03:58:41;;;;;;;12.07;8.15;;;2.80;99.90;;;;;;5017705;28;20141;-88
2022/04/20 04:01:28;;;;;;;11.45;8.50;;;2.80;99.90;;;;;;5033883;28;20053;-86
2022/04/20 04:04:18;;;;;;;9.98;7.88;;;2.80;99.90;;;;;;5033204;28;20041;-87
2022/04/20 04:07:06;;;;;;;11.63;7.13;;;2.70;99.90;;;;;;5035265;28;20371;-88
2022/04/20 04:09:53;;;;;;;11.50;7.57;;;2.60;99.90;;;;;;5037220;28;20061;-88
2022/04/20 04:12:45;;;;;;;10.65;7.88;;;2.50;99.90;;;;;;5022128;28;20112;-88
2022/04/20 04:15:33;;;;;;;10.03;8.17;;;2.50;99.90;;;;;;5016914;28;20049;-88
2022/04/20 04:18:20;;;;;;;9.68;7.80;;;2.50;99.90;;;;;;5029113;28;20050;-88
2022/04/20 04:21:07;;;;;;;11.77;8.02;;;2.60;99.90;;;;;;5035325;28;20417;-87
2022/04/20 04:23:58;;;;;;;10.30;7.68;;;2.50;99.90;;;;;;5036796;28;20052;-87
2022/04/20 04:26:45;;;;;;;12.73;8.70;;;2.40;99.90;;;;;;5014982;28;20048;-86
2022/04/20 04:29:32;;;;;;;11.80;8.30;;;2.40;99.90;;;;;;5029863;28;20062;-87
2022/04/20 04:36:58;;;;;;;10.48;7.45;;;2.40;99.90;;;;;;5027053;28;20029;-84
2022/04/20 04:55:45;;;;;;;9.88;7.38;;;2.50;99.90;;;;;;4977731;28;20050;-86
2022/04/20 04:58:34;;;;;;;10.95;8.32;;;2.50;99.90;;;;;;4972510;28;20046;-86
2022/04/20 05:01:21;;;;;;;9.95;7.82;;;2.40;99.90;;;;;;5011094;28;20199;-86
2022/04/20 05:12:11;;;;;;;13.70;8.32;;;2.50;99.90;;;;;;5867791;23;20054;-87
2022/04/20 05:14:58;;;;;;;13.15;8.18;;;2.50;99.90;;;;;;4990968;28;20050;-85
2022/04/20 05:17:48;;;;;;;13.13;8.25;;;2.70;99.90;;;;;;5001306;28;20133;-83
2022/04/20 05:20:38;;;;;;;11.10;7.75;;;2.80;99.90;;;;;;5003140;28;20050;-84
2022/04/20 05:23:25;;;;;;;11.57;7.75;;;3.10;99.90;;;;;;4979144;28;20034;-83
2022/04/20 05:26:14;;;;;;;9.20;7.40;;;3.30;99.90;;;;;;4992794;28;20097;-80
2022/04/20 05:29:02;;;;;;;12.32;8.60;;;3.40;99.90;;;;;;4993051;28;20050;-82
2022/04/20 05:31:59;;;;;;;8.65;7.38;;;3.50;99.90;;;;;;4979412;28;20057;-82
2022/04/20 05:34:46;;;;;;;12.10;7.75;;;3.60;99.90;;;;;;4986767;28;20053;-85
2022/04/20 05:44:02;;;;;;;8.90;6.93;;;3.80;99.90;;;;;;4975445;28;20470;-88
2022/04/20 05:46:50;;;;;;;9.10;6.55;;;3.90;99.90;;;;;;4995330;28;20043;-89
2022/04/20 05:49:39;;;;;;;11.48;7.40;;;4.00;99.90;;;;;;4993669;28;20066;-87
2022/04/20 05:52:29;;;;;;;9.45;6.88;;;4.00;99.90;;;;;;4991504;28;20390;-88
2022/04/20 05:55:16;;;;;;;10.77;7.03;;;4.10;99.90;;;;;;4992473;28;20043;-87
2022/04/20 05:58:03;;;;;;;12.82;6.82;;;4.10;99.90;;;;;;5002628;28;20049;-85
2022/04/20 06:00:53;;;;;;;11.30;6.63;;;4.10;99.90;;;;;;5012094;28;20086;-88
2022/04/20 06:03:47;;;;;;;9.63;6.15;;;4.20;99.90;;;;;;4992682;28;20046;-88
2022/04/20 06:06:37;;;;;;;12.70;5.93;;;4.40;99.90;;;;;;4994397;28;20109;-87
2022/04/20 06:09:25;;;;;;;11.48;6.05;;;4.50;99.90;;;;;;5003205;28;20026;-89
2022/04/20 06:12:15;;;;;;;9.27;6.13;;;4.60;99.90;;;;;;5004267;28;20047;-88
2022/04/20 06:15:06;;;;;;;7.03;5.70;;;4.80;99.90;;;;;;5011949;28;20074;-88
2022/04/20 06:17:54;;;;;;;5.88;4.88;;;5.10;99.90;;;;;;5001747;28;20043;-90
2022/04/20 06:20:42;;;;;;;6.75;4.35;;;5.30;99.90;;;;;;4995280;28;20046;-84
2022/04/20 06:23:30;;;;;;;7.13;5.00;;;5.40;99.90;;;;;;4999927;28;20061;-90
2022/04/20 06:26:17;;;;;;;8.18;4.45;;;5.70;99.90;;;;;;5003611;28;20100;-92
2022/04/20 06:29:07;;;;;;;7.40;4.38;;;5.70;99.90;;;;;;5014358;28;20051;-86
2022/04/20 06:31:55;;;;;;;7.28;4.30;;;6.00;99.90;;;;;;5012071;28;20082;-82
2022/04/20 06:34:42;;;;;;;7.50;4.07;;;6.10;99.90;;;;;;4993766;28;20046;-87
2022/04/20 06:37:29;;;;;;;7.70;4.22;;;6.20;99.90;;;;;;5008128;28;20104;-86
2022/04/20 06:40:21;;;;;;;9.40;4.20;;;6.50;99.90;;;;;;5010707;28;20046;-88
2022/04/20 06:43:11;;;;;;;8.00;4.85;;;6.60;99.90;;;;;;5003659;28;20471;-86
2022/04/20 06:45:58;;;;;;;5.38;4.03;;;7.00;99.90;;;;;;5009795;28;20048;-87
2022/04/20 06:48:47;;;;;;;6.93;4.57;;;7.10;98.80;;;;;;5002795;28;20082;-88
2022/04/20 07:00:57;;;;;;;6.40;4.40;;;7.70;95.40;;;;;;5006320;28;20105;-86
2022/04/20 07:03:45;;;;;;;9.57;4.60;;;7.80;95.30;;;;;;4997290;28;20046;-85
2022/04/20 07:06:36;;;;;;;4.43;3.90;;;7.90;94.70;;;;;;4990583;28;20110;-83
2022/04/20 07:09:31;;;;;;;6.15;3.88;;;8.10;93.40;;;;;;5006703;28;20042;-83
2022/04/20 07:12:26;;;;;;;7.80;4.68;;;8.40;92.60;;;;;;5007369;28;20050;-86
2022/04/20 07:15:22;;;;;;;7.28;4.03;;;8.80;91.80;;;;;;5008359;28;20093;-88
2022/04/20 07:18:34;;;;;;;7.47;3.75;;;9.00;89.80;;;;;;5009054;28;20053;-83
2022/04/20 07:21:23;;;;;;;5.07;3.70;;;9.20;87.30;;;;;;5004987;28;20065;-88
2022/04/20 07:24:12;;;;;;;4.97;3.75;;;9.20;84.70;;;;;;5011550;28;20133;-88
2022/04/20 07:26:59;;;;;;;7.28;3.55;;;9.50;84.50;;;;;;4986284;28;20042;-89
2022/04/20 07:29:47;;;;;;;4.38;3.60;;;9.60;82.90;;;;;;4991368;28;20061;-90
2022/04/20 07:32:40;;;;;;;5.25;3.70;;;9.90;83.00;;;;;;4996553;28;20082;-84
2022/04/20 07:35:35;;;;;;;7.10;3.45;;;9.90;80.50;;;;;;5000771;28;20062;-90
2022/04/20 07:38:25;;;;;;;5.97;3.35;;;10.10;79.00;;;;;;5000927;28;20184;-87
2022/04/20 07:41:13;;;;;;;5.50;3.95;;;10.10;78.70;;;;;;5019948;28;20031;-86
2022/04/20 07:44:02;;;;;;;5.07;3.67;;;10.40;77.00;;;;;;5013863;28;20118;-86
2022/04/20 07:46:49;;;;;;;4.95;3.70;;;10.60;76.10;;;;;;5004969;28;20058;-84
2022/04/20 07:53:07;;;;;;;4.47;4.07;;;10.80;78.10;;;;;;5003494;28;20055;-88
2022/04/20 07:56:00;;;;;;;4.28;3.70;;;11.20;74.80;;;;;;4989460;28;20136;-89
2022/04/20 07:58:47;;;;;;;4.55;3.75;;;11.60;72.80;;;;;;5000881;28;20050;-89
2022/04/20 08:01:35;;;;;;;5.18;3.72;;;12.00;73.70;;;;;;4998492;28;20185;-86
2022/04/20 08:04:29;;;;;;;6.18;4.35;;;12.50;70.10;;;;;;4994415;28;20042;-85
2022/04/20 08:07:22;;;;;;;6.10;4.32;;;12.10;70.20;;;;;;4997831;28;20087;-90
2022/04/20 08:10:11;;;;;;;;;;;12.50;69.60;;;;;;4982033;28;20050;-87
2022/04/20 08:12:59;;;;;;;5.55;3.85;;;12.90;69.60;;;;;;4982547;28;19922;-89
2022/04/20 08:15:48;;;;;;;7.30;4.03;;;13.10;68.70;;;;;;4989803;28;20062;-89
2022/04/20 08:18:39;;;;;;;5.15;3.60;;;13.70;65.50;;;;;;4976450;28;20452;-91
2022/04/20 08:21:35;;;;;;;5.07;2.90;;;14.30;67.40;;;;;;4994656;28;20090;-90
2022/04/20 08:24:25;;;;;;;4.32;3.58;;;14.90;62.20;;;;;;4997375;28;20049;-86
2022/04/20 08:27:14;;;;;;;5.47;3.65;;;14.40;59.00;;;;;;4996506;28;20122;-89
2022/04/20 08:30:04;;;;;;;7.57;3.80;;;14.50;59.80;;;;;;4996073;28;20050;-89
2022/04/20 08:32:53;;;;;;;4.78;3.63;;;14.70;59.30;;;;;;5000280;28;20065;-89
2022/04/20 08:35:43;;;;;;;5.95;3.97;;;14.00;58.90;;;;;;5008442;28;20046;-82
2022/04/20 08:38:32;;;;;;;6.35;4.18;;;13.40;59.00;;;;;;4991075;28;20066;-89
2022/04/20 08:41:20;;;;;;;4.68;3.92;;;13.90;60.90;;;;;;4984370;28;20088;-85
2022/04/20 08:44:11;;;;;;;4.70;4.00;;;13.80;58.60;;;;;;5001725;28;20046;-85
2022/04/20 08:47:01;;;;;;;7.50;4.65;;;14.40;58.60;;;;;;4993484;28;20538;-87
2022/04/20 08:49:52;;;;;;;9.00;4.07;;;14.00;57.10;;;;;;4973500;28;20043;-85
2022/04/20 08:52:46;;;;;;;5.10;4.10;;;14.10;57.00;;;;;;4991802;28;20522;-86
2022/04/20 08:55:34;;;;;;;5.07;4.57;;;13.90;57.10;;;;;;5002382;28;20057;-85
2022/04/20 08:58:28;;;;;;;4.38;3.80;;;14.10;56.90;;;;;;4993093;28;20388;-88
2022/04/20 09:01:17;;;;;;;4.50;3.70;;;14.60;57.30;;;;;;4987060;28;20051;-85
2022/04/20 09:04:07;;;;;;;5.30;3.78;;;15.00;55.30;;;;;;4995540;28;20053;-85
2022/04/20 09:07:03;;;;;;;4.13;3.72;;;14.60;57.00;;;;;;4984819;28;20156;-84
2022/04/20 09:09:51;;;;;;;4.82;3.40;;;14.70;55.50;;;;;;4993526;28;20105;-88
2022/04/20 09:12:43;;;;;;;5.00;3.33;;;14.60;55.40;;;;;;4993026;28;20050;-86
2022/04/20 09:15:35;;;;;;;6.40;3.38;;;14.40;56.00;;;;;;4997926;28;20050;-89
2022/04/20 09:18:24;;;;;;;6.90;3.17;;;14.80;54.10;;;;;;4984864;28;20053;-87
2022/04/20 09:21:15;;;;;;;4.32;3.33;;;15.40;52.80;;;;;;4996228;28;20042;-89
2022/04/20 09:24:07;;;;;;;4.95;3.67;;;15.10;51.00;;;;;;4986432;28;20042;-88
2022/04/20 09:26:56;;;;;;;4.72;3.10;;;14.90;52.50;;;;;;4988366;28;20051;-90
2022/04/20 09:29:55;;;;;;;6.45;3.67;;;15.30;53.30;;;;;;4995814;28;20038;-85
2022/04/20 09:32:49;;;;;;;4.53;2.92;;;14.90;51.50;;;;;;4978642;28;20050;-88
2022/04/20 09:35:47;;;;;;;3.55;3.20;;;15.40;53.10;;;;;;5003838;28;20105;-86
2022/04/20 09:38:37;;;;;;;3.25;2.92;;;15.50;51.30;;;;;;4980793;28;20050;-85
2022/04/20 09:41:29;;;;;;;5.10;3.13;;;15.50;48.20;;;;;;5001830;28;20173;-89
2022/04/20 09:44:17;;;;;;;8.32;3.30;;;15.60;49.50;;;;;;4993612;28;20061;-88
2022/04/20 09:50:11;;;;;;;5.72;3.13;;;15.90;49.10;;;;;;4980865;28;20177;-86
2022/04/20 09:53:12;;;;;;;3.25;2.78;;;15.70;48.60;;;;;;4988258;28;20053;-87
2022/04/20 09:56:19;;;;;;;4.88;3.25;;;16.10;47.80;;;;;;4978808;28;20054;-86
2022/04/20 09:59:06;;;;;;;5.07;3.40;;;15.30;49.30;;;;;;4995025;28;20467;-86
2022/04/20 10:01:56;;;;;;;4.65;2.75;;;15.40;49.70;;;;;;4993132;28;20477;-86
2022/04/20 10:04:47;;;;;;;5.13;2.88;;;15.40;47.00;;;;;;4996253;28;20047;-87
2022/04/20 10:07:39;;;;;;;2.97;2.53;;;15.70;45.30;;;;;;5003132;28;20061;-85
2022/04/20 10:10:33;;;;;;;2.53;2.28;;;15.80;46.80;;;;;;5003976;28;20062;-89
2022/04/20 10:13:22;;;;;;;3.75;2.00;;;15.90;43.90;;;;;;5012927;28;20034;-86
2022/04/20 10:16:13;;;;;;;4.55;2.90;;;16.70;45.40;;;;;;5000489;28;20050;-84
2022/04/20 10:19:01;;;;;;;3.35;2.78;;;17.00;42.10;;;;;;5002030;28;20110;-80
2022/04/20 10:21:53;;;;;;;2.30;2.10;;;16.70;43.10;;;;;;5003723;28;20089;-83
2022/04/20 10:24:45;;;;;;;3.60;2.63;;;17.00;41.80;;;;;;5010443;28;20048;-83
2022/04/20 10:28:00;;;;;;;3.83;2.30;;;17.70;42.60;;;;;;5019418;28;20031;-83
2022/04/20 10:31:03;;;;;;;3.40;1.95;;;17.30;39.70;;;;;;5011833;28;20351;-83
2022/04/20 10:33:51;;;;;;;6.07;2.08;;;17.50;43.10;;;;;;5004795;28;20046;-84
2022/04/20 10:36:38;;;;;;;3.65;2.53;;;17.70;39.40;;;;;;5004515;28;20484;-83
2022/04/20 10:39:27;;;;;;;3.42;2.30;;;17.30;41.30;;;;;;4982472;28;20126;-84
2022/04/20 10:42:22;;;;;;;3.80;2.60;;;17.30;40.40;;;;;;4988042;28;20046;-82
2022/04/20 10:45:12;;;;;;;3.83;2.42;;;17.50;41.30;;;;;;4992363;28;20050;-85
2022/04/20 10:48:01;;;;;;;5.18;2.55;;;17.60;40.60;;;;;;4986815;28;20039;-87
2022/04/20 10:51:18;;;;;;;8.75;3.00;;;17.40;41.60;;;;;;4995141;28;20046;-88
2022/04/20 10:54:20;;;;;;;4.18;2.70;;;17.70;41.80;;;;;;4994213;28;20053;-88
2022/04/20 10:57:08;;;;;;;3.65;2.90;;;17.60;42.90;;;;;;4996264;28;20065;-90
2022/04/20 11:00:19;;;;;;;3.45;2.90;;;18.10;39.90;;;;;;4998808;28;20057;-87
2022/04/20 11:03:11;;;;;;;9.52;2.75;;;18.60;42.00;;;;;;4993648;28;20046;-87
2022/04/20 11:06:01;;;;;;;7.63;2.65;;;18.40;40.20;;;;;;4999339;28;20046;-87
2022/04/20 11:09:03;;;;;;;4.07;2.80;;;18.50;40.40;;;;;;4993312;28;20046;-87
2022/04/20 11:21:16;;;;;;;7.57;3.05;;;19.40;40.00;;;;;;5003216;28;20440;-87
2022/04/20 11:24:08;;;;;;;5.18;2.80;;;19.20;38.90;;;;;;4993273;28;20047;-89
2022/04/20 11:26:56;;;;;;;2.70;2.22;;;19.40;40.10;;;;;;4994605;28;20042;-87
2022/04/20 11:29:48;;;;;;;3.75;3.08;;;19.80;38.80;;;;;;4993513;28;20114;-85
2022/04/20 11:32:40;;;;;;;5.15;2.97;;;18.40;36.70;;;;;;4993101;28;20054;-85
2022/04/20 11:35:57;;;;;;;4.97;2.97;;;18.10;40.30;;;;;;4989209;28;20063;-84
2022/04/20 11:38:48;;;;;;;3.58;3.03;;;18.20;40.50;;;;;;4995872;28;20061;-83
2022/04/20 11:42:07;;;;;;;5.40;3.63;;;18.00;40.30;;;;;;4983814;28;20443;-87
2022/04/20 11:45:06;;;;;;;3.88;2.67;;;18.70;41.80;;;;;;4979188;28;20039;-83
2022/04/20 11:52:08;;;;;;;;;;;;;;;;;;;;;
2022/04/20 11:55:47;;;;;;;4.93;3.13;;;20.00;38.30;;;;;;4878491;29;20174;-85
2022/04/20 11:58:38;;;;;;;4.43;2.63;;;19.80;36.20;;;;;;4874429;29;20762;-86
2022/04/20 12:01:30;;;;;;;4.57;3.42;;;19.00;38.90;;;;;;4877605;29;20060;-88
2022/04/20 12:05:01;;;;;;;;;;;18.90;39.80;;;;;;4850538;29;20053;-89
2022/04/20 12:12:45;;;;;;;4.63;2.72;;;20.60;34.10;;;;;;4907152;29;20056;-84
2022/04/20 12:15:46;;;;;;;3.58;2.72;;;20.50;36.00;;;;;;4905255;29;20048;-81
2022/04/20 12:18:44;;;;;;;5.63;2.90;;;20.50;36.00;;;;;;4942620;28;20050;-89
2022/04/20 12:21:47;;;;;;;3.97;2.60;;;19.60;37.90;;;;;;4998765;28;20112;-88
2022/04/20 12:24:36;;;;;;;3.40;2.58;;;20.10;36.60;;;;;;4997851;28;20078;-86
2022/04/20 12:27:28;;;;;;;5.53;3.03;;;20.40;34.60;;;;;;4993603;28;20046;-82
2022/04/20 12:30:44;;;;;;;4.95;3.30;;;20.00;36.20;;;;;;4991437;28;20086;-87
2022/04/20 12:33:34;;;;;;;4.82;2.85;;;20.10;36.30;;;;;;4986023;28;20065;-83
2022/04/20 12:36:41;;;;;;;3.72;2.58;;;20.90;34.90;;;;;;4974131;28;20056;-84
2022/04/20 12:39:42;;;;;;;5.60;2.83;;;20.60;35.60;;;;;;4997647;28;20046;-87
2022/04/20 12:43:05;;;;;;;12.82;3.25;;;21.40;37.70;;;;;;4989208;28;20049;-91
2022/04/20 12:46:12;;;;;;;4.95;2.92;;;21.00;35.30;;;;;;4993172;28;20127;-87
2022/04/20 12:49:02;;;;;;;6.38;3.10;;;19.90;34.80;;;;;;4987820;28;20042;-83
2022/04/20 12:52:18;;;;;;;3.63;2.13;;;19.40;35.60;;;;;;4992664;28;20035;-88
2022/04/20 12:55:09;;;;;;;3.13;2.65;;;20.20;38.10;;;;;;4996579;28;20097;-84
2022/04/20 13:04:45;;;;;;;4.10;3.00;;;21.10;33.30;;;;;;4996551;28;20122;-88
2022/04/20 13:07:36;;;;;;;4.40;3.00;;;21.50;35.30;;;;;;4989960;28;20046;-84
2022/04/20 13:10:25;;;;;;;;;;;22.20;33.70;;;;;;4995164;28;20057;-84
2022/04/20 13:13:13;;;;;;;;;;;21.40;31.20;;;;;;4981924;28;19926;-88
2022/04/20 13:16:01;;;;;;;;;;;21.80;35.30;;;;;;4983951;28;20415;-85
2022/04/20 13:18:51;;;;;;;;;;;21.80;33.50;;;;;;4991206;28;20331;-90
2022/04/20 13:21:42;;;;;;;;;;;22.60;30.00;;;;;;4988713;28;20295;-85
2022/04/20 13:27:56;;;;;;;;;;;21.50;32.60;;;;;;4996201;28;19922;-88
2022/04/20 13:30:46;;;;;;;;;;;20.80;34.50;;;;;;4994014;28;19955;-91
2022/04/20 13:33:35;;;;;;;;;;;21.00;35.00;;;;;;4978598;28;20024;-93
2022/04/20 13:36:25;;;;;;;;;;;22.10;33.40;;;;;;4978132;28;20479;-91
2022/04/20 13:39:14;;;;;;;;;;;23.90;32.00;;;;;;4981042;28;20295;-87
2022/04/20 13:42:02;;;;;;;;;;;22.70;31.10;;;;;;4989303;28;19925;-88
2022/04/20 13:44:57;;;;;;;;;;;22.10;33.00;;;;;;4990569;28;19926;-86
2022/04/20 13:47:46;;;;;;;;;;;21.90;33.70;;;;;;4992914;28;19921;-86
2022/04/20 13:50:36;;;;;;;;;;;22.20;34.30;;;;;;4986179;28;20320;-84
2022/04/20 13:53:24;;;;;;;;;;;21.60;31.70;;;;;;4989042;28;19929;-84
2022/04/20 13:56:11;;;;;;;;;;;21.90;32.90;;;;;;4987223;28;19921;-86
2022/04/20 13:59:00;;;;;;;;;;;21.30;34.70;;;;;;4985714;28;19921;-85
2022/04/20 14:01:53;;;;;;;;;;;21.50;33.60;;;;;;4989456;28;19937;-87
2022/04/20 14:04:41;;;;;;;;;;;21.50;34.10;;;;;;4991530;28;19928;-82
2022/04/20 14:07:28;;;;;;;;;;;21.10;33.90;;;;;;4984211;28;20251;-82
2022/04/20 14:10:19;;;;;;;;;;;21.20;35.00;;;;;;4998836;28;19921;-80
2022/04/20 14:13:10;;;;;;;;;;;21.50;33.60;;;;;;4999562;28;19961;-85
2022/04/20 14:16:13;;;;;;;;;;;20.70;33.90;;;;;;4991703;28;19930;-85
2022/04/20 14:19:07;;;;;;;;;;;21.10;35.30;;;;;;4998351;28;20325;-81
2022/04/20 14:22:13;;;;;;;;;;;21.20;33.40;;;;;;4987867;28;20342;-86
2022/04/20 14:35:48;;;;;;;;;;;21.90;30.40;;;;;;4821933;29;19921;-85
2022/04/20 14:38:52;;;;;;;;;;;20.90;32.30;;;;;;4817029;29;19936;-88
2022/04/20 14:42:27;;;;;;;;;;;20.70;31.40;;;;;;4822926;29;20020;-85
2022/04/20 14:45:28;;;;;;;;;;;20.90;32.10;;;;;;4844821;29;20003;-88
2022/04/20 14:48:17;;;;;;;;;;;20.30;32.30;;;;;;4920441;29;20411;-88
2022/04/20 14:51:11;;;;;;;;;;;21.00;33.10;;;;;;4921480;29;23095;-90
2022/04/20 14:54:08;;;;;;;;;;;21.40;31.80;;;;;;4920937;29;19932;-86
2022/04/20 14:56:55;;;;;;;;;;;20.90;31.20;;;;;;4908777;29;20546;-85
2022/04/20 14:59:44;;;;;;;;;;;20.30;30.50;;;;;;4904753;29;19933;-91
2022/04/20 15:02:35;;;;;;;;;;;20.50;33.50;;;;;;4942905;28;19926;-89
2022/04/20 15:05:29;;;;;;;;;;;21.20;31.10;;;;;;5006763;28;20362;-86
2022/04/20 15:08:16;;;;;;;;;;;20.50;31.40;;;;;;4983801;28;19926;-90
2022/04/20 15:11:11;;;;;;;;;;;19.70;31.20;;;;;;4996668;28;19921;-89
2022/04/20 15:14:01;;;;;;;;;;;19.50;32.40;;;;;;4995651;28;19921;-88
2022/04/20 15:16:48;;;;;;;;;;;20.00;32.90;;;;;;5007537;28;19925;-85
2022/04/20 15:19:38;;;;;;;;;;;20.60;31.80;;;;;;5006082;28;19933;-89
2022/04/20 15:22:26;;;;;;;;;;;19.90;31.40;;;;;;5000763;28;19925;-91
2022/04/20 15:25:15;;;;;;;;;;;20.10;32.80;;;;;;4982562;28;19926;-89
2022/04/20 15:28:02;;;;;;;;;;;19.80;32.60;;;;;;5000115;28;19929;-87
2022/04/20 15:30:52;;;;;;;;;;;19.30;31.90;;;;;;4995898;28;19949;-89
2022/04/20 15:33:50;;;;;;;;;;;19.20;32.90;;;;;;5000525;28;19933;-89
2022/04/20 15:36:44;;;;;;;;;;;18.80;32.80;;;;;;4996777;28;19945;-88
2022/04/20 15:39:36;;;;;;;;;;;18.40;33.60;;;;;;4997642;28;19930;-87
2022/04/20 15:42:47;;;;;;;;;;;18.20;33.60;;;;;;4986891;28;20236;-87
2022/04/20 15:45:37;;;;;;;;;;;18.00;33.90;;;;;;4978507;28;20359;-84
2022/04/20 15:48:36;;;;;;;;;;;17.60;33.90;;;;;;4983853;28;20354;-91
2022/04/20 15:51:37;;;;;;;;;;;18.00;34.50;;;;;;4984365;28;19926;-83
2022/04/20 15:54:32;;;;;;;;;;;17.40;34.10;;;;;;4995610;28;19984;-90
2022/04/20 16:00:32;;;;;;;;;;;17.10;36.70;;;;;;5001998;28;20295;-87
2022/04/20 16:03:27;;;;;;;;;;;17.10;37.10;;;;;;4998571;28;19937;-83
2022/04/20 16:06:18;;;;;;;;;;;16.90;36.80;;;;;;5001328;28;19921;-87
2022/04/20 16:09:13;;;;;;;;;;;16.30;37.60;;;;;;5005661;28;19910;-84
2022/04/20 16:12:02;;;;;;;;;;;16.10;38.20;;;;;;4994975;28;19936;-86
2022/04/20 16:14:49;;;;;;;;;;;15.80;39.30;;;;;;5003195;28;19964;-83
2022/04/20 16:17:38;;;;;;;;;;;15.60;39.70;;;;;;4998907;28;19932;-84
2022/04/20 16:20:31;;;;;;;;;;;15.50;40.50;;;;;;5013835;28;20040;-81
2022/04/20 16:23:19;;;;;;;;;;;15.20;40.80;;;;;;5008460;28;19916;-82
2022/04/20 16:26:07;;;;;;;;;;;15.10;41.50;;;;;;5003529;28;19910;-87
2022/04/20 16:28:54;;;;;;;;;;;15.00;42.10;;;;;;5012614;28;19909;-84
2022/04/20 16:31:43;;;;;;;;;;;14.80;41.30;;;;;;4997810;28;19921;-83
2022/04/20 16:34:36;;;;;;;;;;;14.50;41.00;;;;;;5016307;28;19925;-88
2022/04/20 16:37:26;;;;;;;;;;;14.30;41.80;;;;;;5010085;28;19922;-86
2022/04/20 16:40:21;;;;;;;;;;;14.10;42.70;;;;;;5005459;28;19949;-87
2022/04/20 16:43:09;;;;;;;;;;;13.80;43.10;;;;;;5005169;28;19922;-85
2022/04/20 16:45:58;;;;;;;;;;;13.60;43.90;;;;;;4974571;28;19977;-86
2022/04/20 16:48:46;;;;;;;;;;;13.40;44.30;;;;;;4982293;28;20343;-87
2022/04/20 16:51:34;;;;;;;;;;;13.40;44.40;;;;;;4998198;28;19997;-88
2022/04/20 16:54:27;;;;;;;;;;;13.30;45.10;;;;;;4998438;28;20351;-86